createdAt,value
2023-01-20T00:02:14.188Z,100365.44
2023-01-20T00:04:46.322Z,100370.66
2023-01-20T00:07:16.377Z,100372.91
2023-01-20T00:09:46.215Z,100369.97
2023-01-20T00:12:28.928Z,100367.16
2023-01-20T00:15:01.010Z,100374.66
2023-01-20T00:17:33.555Z,100373.00
2023-01-20T00:20:06.163Z,100372.53
2023-01-20T00:22:42.798Z,100378.09
2023-01-20T00:25:13.592Z,100380.59
2023-01-20T00:27:43.672Z,100388.09
2023-01-20T00:30:19.789Z,100389.50
2023-01-20T00:32:49.481Z,100392.81
2023-01-20T00:35:19.788Z,100386.03
2023-01-20T00:37:57.218Z,100398.72
2023-01-20T00:40:29.123Z,100400.84
2023-01-20T00:43:01.157Z,100400.47
2023-01-20T00:45:31.543Z,100405.84
2023-01-20T00:48:04.416Z,100407.16
2023-01-20T00:50:34.781Z,100408.00
2023-01-20T00:53:08.341Z,100416.31
2023-01-20T00:55:40.601Z,100423.97
2023-01-20T00:58:09.525Z,100431.59
2023-01-20T01:00:36.247Z,100427.91
2023-01-20T01:03:06.024Z,100435.06
2023-01-20T01:05:41.032Z,100439.88
2023-01-20T01:08:12.892Z,100440.59
2023-01-20T01:10:42.340Z,100445.44
2023-01-20T01:13:12.485Z,100447.31
2023-01-20T01:15:42.861Z,100462.50
2023-01-20T01:18:09.766Z,100455.75
2023-01-20T01:20:39.190Z,100457.75
2023-01-20T01:23:10.905Z,100461.09
2023-01-20T01:25:38.232Z,100466.22
2023-01-20T01:28:05.105Z,100469.59
2023-01-20T01:30:40.514Z,100469.41
2023-01-20T01:33:12.554Z,100470.97
2023-01-20T01:35:45.769Z,100465.56
2023-01-20T01:38:14.838Z,100484.13
2023-01-20T01:40:51.017Z,100491.78
2023-01-20T01:43:25.255Z,100493.06
2023-01-20T01:45:57.426Z,100503.09
2023-01-20T01:48:47.144Z,100502.91
2023-01-20T01:51:17.966Z,100491.91
2023-01-20T01:53:48.587Z,100493.69
2023-01-20T01:56:19.271Z,100502.00
2023-01-20T01:58:52.227Z,100500.75
2023-01-20T02:01:19.093Z,100511.06
2023-01-20T02:03:55.763Z,100504.38
2023-01-20T02:06:23.885Z,100504.25
2023-01-20T02:08:56.368Z,100510.31
2023-01-20T02:11:25.793Z,100514.06
2023-01-20T02:13:56.699Z,100518.59
2023-01-20T02:16:42.287Z,100517.31
2023-01-20T02:19:17.709Z,100517.63
2023-01-20T02:21:56.345Z,100522.94
2023-01-20T02:24:38.369Z,100529.59
2023-01-20T02:27:24.361Z,100531.81
2023-01-20T02:30:09.585Z,100536.59
2023-01-20T02:32:50.235Z,100537.09
2023-01-20T02:35:40.809Z,100542.88
2023-01-20T02:38:19.401Z,100551.63
2023-01-20T02:40:49.389Z,100555.22
2023-01-20T02:43:18.875Z,100564.41
2023-01-20T02:45:50.517Z,100554.69
2023-01-20T02:48:29.511Z,100561.94
2023-01-20T02:51:01.865Z,100563.59
2023-01-20T02:53:39.387Z,100565.38
2023-01-20T02:56:26.918Z,100567.50
2023-01-20T02:58:59.350Z,100573.34
2023-01-20T03:01:38.077Z,100578.88
2023-01-20T03:04:16.812Z,100571.41
2023-01-20T03:06:47.929Z,100578.59
2023-01-20T03:09:26.783Z,100571.34
2023-01-20T03:11:56.918Z,100585.81
2023-01-20T03:14:26.039Z,100574.69
2023-01-20T03:16:56.488Z,100583.31
2023-01-20T03:19:27.637Z,100573.56
2023-01-20T03:22:11.160Z,100580.50
2023-01-20T03:24:45.800Z,100583.06
2023-01-20T03:27:13.042Z,100583.91
2023-01-20T03:29:40.498Z,100577.47
2023-01-20T03:32:13.405Z,100589.72
2023-01-20T03:34:43.604Z,100581.63
2023-01-20T03:37:13.376Z,100587.59
2023-01-20T03:39:40.629Z,100596.06
2023-01-20T03:42:19.925Z,100593.28
2023-01-20T03:44:55.886Z,100591.91
2023-01-20T03:47:28.652Z,100607.00
2023-01-20T03:50:36.601Z,100597.81
2023-01-20T03:53:09.958Z,100602.53
2023-01-20T03:55:42.102Z,100609.22
2023-01-20T03:58:22.652Z,100619.81
2023-01-20T04:00:57.776Z,100612.69
2023-01-20T04:03:32.981Z,100611.97
2023-01-20T04:06:04.847Z,100624.50
2023-01-20T04:08:56.763Z,100622.03
2023-01-20T04:11:29.466Z,100630.06
2023-01-20T04:13:59.523Z,100635.34
2023-01-20T04:16:28.615Z,100631.75
2023-01-20T04:19:01.015Z,100641.34
2023-01-20T04:21:36.645Z,100644.25
2023-01-20T04:24:09.310Z,100653.22
2023-01-20T04:26:35.915Z,100647.03
2023-01-20T04:29:11.097Z,100657.00
2023-01-20T04:31:39.653Z,100658.00
2023-01-20T04:34:06.504Z,100661.78
2023-01-20T04:36:33.135Z,100659.84
2023-01-20T04:38:59.684Z,100666.09
2023-01-20T04:41:26.181Z,100674.47
2023-01-20T04:43:52.968Z,100676.81
2023-01-20T04:46:19.921Z,100680.84
2023-01-20T04:48:46.811Z,100685.59
2023-01-20T04:51:16.629Z,100686.81
2023-01-20T04:53:43.107Z,100684.03
2023-01-20T04:56:13.141Z,100690.41
2023-01-20T04:58:57.437Z,100700.06
2023-01-20T05:01:24.664Z,100694.97
2023-01-20T05:03:53.449Z,100705.34
2023-01-20T05:06:20.447Z,100702.69
2023-01-20T05:08:47.521Z,100705.13
2023-01-20T05:11:18.198Z,100711.09
2023-01-20T05:13:49.787Z,100706.84
2023-01-20T05:16:28.605Z,100707.91
2023-01-20T05:18:59.143Z,100714.06
2023-01-20T05:21:29.553Z,100731.59
2023-01-20T05:24:00.997Z,100727.66
2023-01-20T05:26:35.692Z,100735.38
2023-01-20T05:29:03.587Z,100738.88
2023-01-20T05:31:36.902Z,100739.44
2023-01-20T05:34:06.338Z,100746.31
2023-01-20T05:36:36.330Z,100756.09
2023-01-20T05:39:04.007Z,100755.69
2023-01-20T05:41:33.276Z,100758.63
2023-01-20T05:44:03.135Z,100761.41
2023-01-20T05:46:35.188Z,100756.00
2023-01-20T05:49:08.076Z,100763.06
2023-01-20T05:51:44.994Z,100762.66
2023-01-20T05:54:18.521Z,100767.91
2023-01-20T05:56:55.147Z,100767.25
2023-01-20T05:59:23.831Z,100767.25
2023-01-20T06:01:52.774Z,100774.22
2023-01-20T06:04:26.759Z,100774.22
2023-01-20T06:07:00.114Z,100781.16
2023-01-20T06:09:27.486Z,100787.44
2023-01-20T06:11:56.892Z,100791.22
2023-01-20T06:14:30.286Z,100793.53
2023-01-20T06:17:03.091Z,100806.38
2023-01-20T06:19:36.728Z,100813.41
2023-01-20T06:22:10.941Z,100818.25
2023-01-20T06:24:40.436Z,100826.97
2023-01-20T06:27:13.809Z,100831.56
2023-01-20T06:29:47.133Z,100830.63
2023-01-20T06:32:17.443Z,100825.53
2023-01-20T06:34:56.669Z,100828.78
2023-01-20T06:37:29.214Z,100840.06
2023-01-20T06:40:01.188Z,100838.41
2023-01-20T06:42:37.567Z,100844.66
2023-01-20T06:45:07.360Z,100844.78
2023-01-20T06:47:43.224Z,100848.53
2023-01-20T06:50:12.608Z,100861.78
2023-01-20T06:52:42.515Z,100859.84
2023-01-20T06:55:10.053Z,100857.69
2023-01-20T06:57:39.605Z,100865.22
2023-01-20T07:00:09.816Z,100867.50
2023-01-20T07:02:36.598Z,100871.38
2023-01-20T07:05:08.364Z,100882.38
2023-01-20T07:07:38.648Z,100881.63
2023-01-20T07:10:08.062Z,100886.13
2023-01-20T07:12:43.259Z,100882.97
2023-01-20T07:15:13.228Z,100895.75
2023-01-20T07:17:49.321Z,100896.75
2023-01-20T07:20:21.438Z,100902.00
2023-01-20T07:22:55.620Z,100909.28
2023-01-20T07:25:22.201Z,100914.25
2023-01-20T07:27:48.965Z,100920.06
2023-01-20T07:30:25.394Z,100922.38
2023-01-20T07:33:03.390Z,100926.66
2023-01-20T07:35:33.966Z,100919.63
2023-01-20T07:38:01.889Z,100921.13
2023-01-20T07:40:34.312Z,100927.50
2023-01-20T07:43:10.944Z,100936.44
2023-01-20T07:45:37.961Z,100942.81
2023-01-20T07:48:05.081Z,100947.03
2023-01-20T07:50:37.949Z,100949.69
2023-01-20T07:53:07.760Z,100960.50
2023-01-20T07:55:38.997Z,100965.00
2023-01-20T07:58:14.879Z,100974.91
2023-01-20T08:00:49.588Z,100983.81
2023-01-20T08:03:20.020Z,100990.09
2023-01-20T08:05:53.242Z,100989.81
2023-01-20T08:08:21.021Z,100993.72
2023-01-20T08:11:03.180Z,101003.16
2023-01-20T08:13:35.260Z,100992.53
2023-01-20T08:16:09.513Z,101004.00
2023-01-20T08:18:42.133Z,101010.44
2023-01-20T08:21:19.502Z,101004.63
2023-01-20T08:23:50.622Z,101010.72
2023-01-20T08:26:36.065Z,101008.38
2023-01-20T08:29:17.632Z,101014.16
2023-01-20T08:31:49.913Z,101020.44
2023-01-20T08:34:21.002Z,101021.31
2023-01-20T08:36:54.140Z,101028.13
2023-01-20T08:39:24.429Z,101024.44
2023-01-20T08:42:02.928Z,101026.59
2023-01-20T08:44:35.402Z,101036.94
2023-01-20T08:47:04.990Z,101044.97
2023-01-20T08:49:35.132Z,101052.53
2023-01-20T08:52:07.964Z,101055.06
2023-01-20T08:54:41.424Z,101053.78
2023-01-20T08:57:17.214Z,101067.28
2023-01-20T08:59:55.648Z,101064.94
2023-01-20T09:02:25.433Z,101064.41
2023-01-20T09:04:55.846Z,101068.94
2023-01-20T09:07:28.600Z,101072.00
2023-01-20T09:09:58.127Z,101076.19
2023-01-20T09:12:27.531Z,101091.47
2023-01-20T09:14:57.845Z,101083.69
2023-01-20T09:17:33.569Z,101093.47
2023-01-20T09:20:04.154Z,101095.69
2023-01-20T09:22:33.501Z,101102.47
2023-01-20T09:25:06.169Z,101108.50
2023-01-20T09:27:42.087Z,101114.81
2023-01-20T09:30:11.702Z,101125.63
2023-01-20T09:32:44.389Z,101130.09
2023-01-20T09:35:17.622Z,101130.66
2023-01-20T09:38:02.996Z,101134.28
2023-01-20T09:40:54.099Z,101131.97
2023-01-20T09:43:53.714Z,101137.88
2023-01-20T09:46:39.722Z,101141.41
2023-01-20T09:49:48.034Z,101142.38
2023-01-20T09:52:35.971Z,101144.59
2023-01-20T09:55:10.810Z,101147.06
2023-01-20T09:57:43.216Z,101152.34
2023-01-20T10:00:22.861Z,101152.69
2023-01-20T10:03:02.787Z,101148.41
2023-01-20T10:05:43.335Z,101141.00
2023-01-20T10:08:22.027Z,101150.50
2023-01-20T10:10:58.812Z,101147.66
2023-01-20T10:13:32.808Z,101119.25
2023-01-20T10:16:09.696Z,101162.75
2023-01-20T10:18:54.050Z,101163.44
2023-01-20T10:21:27.957Z,101170.31
2023-01-20T10:24:03.523Z,101172.69
2023-01-20T10:26:49.614Z,101175.03
2023-01-20T10:29:24.725Z,101182.53
2023-01-20T10:32:17.851Z,101169.22
2023-01-20T10:34:48.843Z,101177.84
2023-01-20T10:37:19.294Z,101174.22
2023-01-20T10:40:07.738Z,101171.72
2023-01-20T10:42:37.361Z,101178.91
2023-01-20T10:45:15.021Z,101179.69
2023-01-20T10:47:47.111Z,101179.78
2023-01-20T10:50:36.072Z,101181.97
2023-01-20T10:53:12.330Z,101190.19
2023-01-20T10:55:42.745Z,101189.50
2023-01-20T10:58:21.351Z,101199.69
2023-01-20T11:00:57.059Z,101196.53
2023-01-20T11:03:29.772Z,101206.09
2023-01-20T11:06:07.157Z,101205.69
2023-01-20T11:08:41.737Z,101209.41
2023-01-20T11:11:14.357Z,101216.91
2023-01-20T11:13:46.735Z,101223.91
2023-01-20T11:16:38.220Z,101224.00
2023-01-20T11:19:06.949Z,101228.78
2023-01-20T11:21:43.193Z,101225.34
2023-01-20T11:24:33.555Z,101230.50
2023-01-20T11:27:14.703Z,101228.06
2023-01-20T11:29:46.035Z,101226.72
2023-01-20T11:32:31.474Z,101227.00
2023-01-20T11:35:06.974Z,101220.31
2023-01-20T11:37:39.089Z,101231.22
2023-01-20T11:40:29.424Z,101220.59
2023-01-20T11:43:02.061Z,101225.13
2023-01-20T11:45:34.884Z,101223.25
2023-01-20T11:48:21.999Z,101227.47
2023-01-20T11:50:58.634Z,101221.25
2023-01-20T11:53:34.209Z,101223.47
2023-01-20T11:56:22.078Z,101230.88
2023-01-20T11:59:02.113Z,101226.56
2023-01-20T12:01:29.654Z,101238.00
2023-01-20T12:04:05.739Z,101236.47
2023-01-20T12:06:44.421Z,101234.78
2023-01-20T12:09:15.911Z,101236.22
2023-01-20T12:11:52.649Z,101240.50
2023-01-20T12:14:29.931Z,101238.66
2023-01-20T12:17:15.225Z,101235.91
2023-01-20T12:20:02.299Z,101246.72
2023-01-20T12:22:38.420Z,101250.38
2023-01-20T12:25:25.224Z,101256.56
2023-01-20T12:28:01.323Z,101248.00
2023-01-20T12:30:43.532Z,101262.00
2023-01-20T12:33:21.897Z,101257.91
2023-01-20T12:36:05.312Z,101260.38
2023-01-20T12:38:44.241Z,101266.81
2023-01-20T12:41:22.978Z,101263.16
2023-01-20T12:44:00.473Z,101274.75
2023-01-20T12:46:50.776Z,101285.69
2023-01-20T12:49:17.834Z,101282.22
2023-01-20T12:52:08.240Z,101289.44
2023-01-20T12:54:48.811Z,101291.16
2023-01-20T12:57:34.487Z,101292.06
2023-01-20T13:00:10.539Z,101301.47
2023-01-20T13:02:40.492Z,101298.72
2023-01-20T13:05:29.628Z,101297.47
2023-01-20T13:08:11.902Z,101291.72
2023-01-20T13:11:01.253Z,101297.63
2023-01-20T13:13:56.955Z,101292.38
2023-01-20T13:16:35.209Z,101316.44
2023-01-20T13:19:19.419Z,101312.41
2023-01-20T13:21:56.546Z,101310.91
2023-01-20T13:24:34.189Z,101321.88
2023-01-20T13:27:06.587Z,101320.88
2023-01-20T13:29:40.040Z,101334.94
2023-01-20T13:32:29.101Z,101327.28
2023-01-20T13:35:03.113Z,101332.25
2023-01-20T13:37:35.056Z,101339.22
2023-01-20T13:40:12.234Z,101340.09
2023-01-20T13:42:42.012Z,101343.88
2023-01-20T13:45:19.500Z,101346.84
2023-01-20T13:48:20.986Z,101353.91
2023-01-20T13:50:54.033Z,101361.06
2023-01-20T13:53:28.473Z,101369.25
2023-01-20T13:56:02.124Z,101375.56
2023-01-20T13:58:37.554Z,101381.94
2023-01-20T14:01:06.915Z,101379.56
2023-01-20T14:03:39.614Z,101390.56
2023-01-20T14:06:19.425Z,101393.81
2023-01-20T14:08:50.461Z,101395.78
2023-01-20T14:11:24.068Z,101395.84
2023-01-20T14:13:56.556Z,101396.94
2023-01-20T14:16:32.018Z,101395.34
2023-01-20T14:19:14.003Z,101406.25
2023-01-20T14:21:45.147Z,101414.44
2023-01-20T14:24:50.327Z,101412.75
2023-01-20T14:27:29.809Z,101420.53
2023-01-20T14:29:59.793Z,101430.59
2023-01-20T14:32:29.675Z,101431.19
2023-01-20T14:34:59.629Z,101438.19
2023-01-20T14:37:30.666Z,101445.22
2023-01-20T14:40:05.993Z,101448.25
2023-01-20T14:42:37.959Z,101455.38
2023-01-20T14:45:21.382Z,101461.91
2023-01-20T14:47:54.740Z,101471.06
2023-01-20T14:50:35.033Z,101466.91
2023-01-20T14:53:10.973Z,101476.78
2023-01-20T14:55:43.347Z,101482.50
2023-01-20T14:58:19.550Z,101484.47
2023-01-20T15:00:56.306Z,101485.44
2023-01-20T15:03:33.350Z,101498.94
2023-01-20T15:06:06.732Z,101509.59
2023-01-20T15:08:40.032Z,101514.09
2023-01-20T15:11:21.855Z,101512.25
2023-01-20T15:13:55.511Z,101518.53
2023-01-20T15:16:29.757Z,101518.38
2023-01-20T15:19:19.686Z,101525.16
2023-01-20T15:21:56.695Z,101523.66
2023-01-20T15:24:32.828Z,101538.06
2023-01-20T15:27:05.957Z,101543.84
2023-01-20T15:29:40.915Z,101548.59
2023-01-20T15:32:19.521Z,101558.16
2023-01-20T15:34:56.329Z,101565.16
2023-01-20T15:37:24.566Z,101564.28
2023-01-20T15:39:53.179Z,101573.75
2023-01-20T15:42:25.164Z,101578.53
2023-01-20T15:44:55.216Z,101581.81
2023-01-20T15:47:27.253Z,101578.72
2023-01-20T15:50:02.327Z,101585.38
2023-01-20T15:52:35.482Z,101590.94
2023-01-20T15:55:04.637Z,101589.53
2023-01-20T15:57:35.157Z,101596.53
2023-01-20T16:00:06.802Z,101599.63
2023-01-20T16:02:36.068Z,101604.78
2023-01-20T16:05:08.796Z,101610.09
2023-01-20T16:07:35.139Z,101613.72
2023-01-20T16:10:03.546Z,101621.47
2023-01-20T16:12:30.172Z,101622.97
2023-01-20T16:15:00.935Z,101628.03
2023-01-20T16:17:30.131Z,101629.00
2023-01-20T16:19:59.119Z,101638.09
2023-01-20T16:22:25.799Z,101643.31
2023-01-20T16:24:54.141Z,101646.06
2023-01-20T16:27:24.735Z,101653.63
2023-01-20T16:29:51.414Z,101657.63
2023-01-20T16:32:22.287Z,101660.00
2023-01-20T16:34:49.642Z,101665.94
2023-01-20T16:37:16.527Z,101666.13
2023-01-20T16:39:43.449Z,101668.38
2023-01-20T16:42:14.312Z,101670.59
2023-01-20T16:44:41.012Z,101678.47
2023-01-20T16:47:08.552Z,101687.97
2023-01-20T16:49:42.339Z,101682.31
2023-01-20T16:52:12.193Z,101696.84
2023-01-20T16:54:45.086Z,101698.50
2023-01-20T16:57:14.622Z,101701.66
2023-01-20T16:59:47.123Z,101711.06
2023-01-20T17:02:14.419Z,101713.41
2023-01-20T17:04:45.119Z,101724.75
2023-01-20T17:07:15.272Z,101720.63
2023-01-20T17:09:42.684Z,101722.56
2023-01-20T17:12:09.502Z,101725.63
2023-01-20T17:14:38.964Z,101731.63
2023-01-20T17:17:10.248Z,101738.22
2023-01-20T17:19:41.109Z,101740.38
2023-01-20T17:22:08.487Z,101743.16
2023-01-20T17:24:35.320Z,101748.34
2023-01-20T17:27:02.865Z,101741.59
2023-01-20T17:29:35.383Z,101752.66
2023-01-20T17:32:06.548Z,101753.13
2023-01-20T17:34:39.097Z,101757.88
2023-01-20T17:37:05.844Z,101767.47
2023-01-20T17:39:40.842Z,101772.94
2023-01-20T17:42:07.621Z,101778.50
2023-01-20T17:44:39.180Z,101786.06
2023-01-20T17:47:05.811Z,101784.28
2023-01-20T17:49:32.683Z,101786.66
2023-01-20T17:51:59.296Z,101795.81
2023-01-20T17:54:26.767Z,101797.44
2023-01-20T17:56:53.475Z,101799.66
2023-01-20T17:59:23.368Z,101803.72
2023-01-20T18:01:53.538Z,101809.41
2023-01-20T18:04:22.699Z,101822.66
2023-01-20T18:06:58.955Z,101819.22
2023-01-20T18:09:25.722Z,101823.38
2023-01-20T18:11:58.456Z,101829.50
2023-01-20T18:14:38.728Z,101833.41
2023-01-20T18:17:06.030Z,101833.94
2023-01-20T18:19:35.769Z,101838.53
2023-01-20T18:22:07.113Z,101847.06
2023-01-20T18:24:36.699Z,101854.44
2023-01-20T18:27:03.235Z,101856.13
2023-01-20T18:29:36.915Z,101855.28
2023-01-20T18:32:03.881Z,101856.22
2023-01-20T18:34:34.895Z,101861.66
2023-01-20T18:37:03.140Z,101860.41
2023-01-20T18:39:37.029Z,101864.31
2023-01-20T18:42:07.240Z,101858.59
2023-01-20T18:44:36.749Z,101865.81
2023-01-20T18:47:06.122Z,101870.69
2023-01-20T18:49:42.912Z,101873.31
2023-01-20T18:52:15.307Z,101880.47
2023-01-20T18:54:41.768Z,101881.22
2023-01-20T18:57:09.340Z,101884.56
2023-01-20T18:59:37.182Z,101891.28
2023-01-20T19:02:08.885Z,101894.94
2023-01-20T19:04:37.069Z,101892.28
2023-01-20T19:07:07.753Z,101887.19
2023-01-20T19:09:34.625Z,101897.72
2023-01-20T19:12:04.760Z,101902.63
2023-01-20T19:14:34.843Z,101906.72
2023-01-20T19:17:01.571Z,101905.72
2023-01-20T19:19:28.943Z,101920.31
2023-01-20T19:21:57.543Z,101922.09
2023-01-20T19:24:28.962Z,101919.16
2023-01-20T19:26:58.515Z,101926.66
2023-01-20T19:29:29.115Z,101931.38
2023-01-20T19:31:55.755Z,101934.91
2023-01-20T19:34:25.313Z,101940.00
2023-01-20T19:36:51.812Z,101941.38
2023-01-20T19:39:18.457Z,101940.72
2023-01-20T19:41:45.295Z,101952.97
2023-01-20T19:44:17.948Z,101950.13
2023-01-20T19:46:44.522Z,101952.19
2023-01-20T19:49:15.645Z,101961.72
2023-01-20T19:51:45.901Z,101966.53
2023-01-20T19:54:13.343Z,101975.22
2023-01-20T19:56:40.476Z,101968.63
2023-01-20T19:59:12.489Z,101974.56
2023-01-20T20:01:45.288Z,101977.09
2023-01-20T20:04:16.234Z,101982.59
2023-01-20T20:06:48.440Z,101983.06
2023-01-20T20:09:23.477Z,102000.50
2023-01-20T20:11:53.592Z,102001.22
2023-01-20T20:14:23.185Z,101999.50
2023-01-20T20:16:59.348Z,102009.22
2023-01-20T20:19:32.534Z,102014.28
2023-01-20T20:22:08.355Z,102012.81
2023-01-20T20:24:34.953Z,102017.66
2023-01-20T20:27:05.010Z,102015.94
2023-01-20T20:29:32.065Z,102010.28
2023-01-20T20:31:58.569Z,102016.59
2023-01-20T20:34:24.985Z,102019.69
2023-01-20T20:37:00.987Z,102019.22
2023-01-20T20:39:27.507Z,102020.56
2023-01-20T20:41:59.942Z,102017.63
2023-01-20T20:44:26.891Z,102024.66
2023-01-20T20:46:53.430Z,102025.41
2023-01-20T20:49:21.146Z,102029.69
2023-01-20T20:51:47.907Z,102034.66
2023-01-20T20:54:16.865Z,102034.59
2023-01-20T20:56:46.997Z,102045.50
2023-01-20T20:59:15.594Z,102051.41
2023-01-20T21:01:46.411Z,102050.78
2023-01-20T21:04:17.411Z,102058.50
2023-01-20T21:06:44.257Z,102059.56
2023-01-20T21:09:12.716Z,102067.38
2023-01-20T21:11:41.519Z,102070.72
2023-01-20T21:14:09.841Z,102069.06
2023-01-20T21:16:36.624Z,102075.41
2023-01-20T21:19:04.407Z,102076.59
2023-01-20T21:21:30.935Z,102074.84
2023-01-20T21:23:58.702Z,102076.53
2023-01-20T21:26:28.967Z,102076.00
2023-01-20T21:28:56.690Z,102080.84
2023-01-20T21:31:26.448Z,102080.47
2023-01-20T21:33:54.889Z,102081.59
2023-01-20T21:36:21.976Z,102081.84
2023-01-20T21:38:48.651Z,102083.19
2023-01-20T21:41:15.870Z,102083.53
2023-01-20T21:44:02.085Z,102088.59
2023-01-20T21:46:29.425Z,102092.09
2023-01-20T21:49:14.769Z,102098.38
2023-01-20T21:51:59.821Z,102099.63
2023-01-20T21:54:30.250Z,102099.09
2023-01-20T21:56:57.079Z,102097.50
2023-01-20T21:59:23.821Z,102102.59
2023-01-20T22:01:52.939Z,102105.59
2023-01-20T22:04:19.698Z,102118.03
2023-01-20T22:06:46.275Z,102106.28
2023-01-20T22:09:13.101Z,102106.25
2023-01-20T22:11:39.837Z,102111.56
2023-01-20T22:14:06.412Z,102121.94
2023-01-20T22:16:33.143Z,102122.44
2023-01-20T22:19:01.158Z,102118.38
2023-01-20T22:21:27.644Z,102114.41
2023-01-20T22:23:53.990Z,102117.84
2023-01-20T22:26:20.583Z,102130.34
2023-01-20T22:28:47.612Z,102117.75
2023-01-20T22:31:22.098Z,102120.00
2023-01-20T22:33:52.885Z,102124.31
2023-01-20T22:36:25.834Z,102132.66
2023-01-20T22:38:52.884Z,102137.69
2023-01-20T22:41:20.601Z,102146.94
2023-01-20T22:43:48.263Z,102152.94
2023-01-20T22:46:19.429Z,102160.31
2023-01-20T22:48:46.602Z,102155.97
2023-01-20T22:51:21.495Z,102162.19
2023-01-20T22:53:49.193Z,102153.78
2023-01-20T22:56:18.236Z,102160.72
2023-01-20T22:58:45.245Z,102160.19
2023-01-20T23:01:19.389Z,102168.84
2023-01-20T23:03:46.414Z,102163.91
2023-01-20T23:06:13.068Z,102171.88
2023-01-20T23:08:40.483Z,102168.13
2023-01-20T23:11:13.149Z,102178.31
2023-01-20T23:13:45.881Z,102174.69
2023-01-20T23:16:18.810Z,102172.59
2023-01-20T23:18:46.502Z,102173.69
2023-01-20T23:21:19.259Z,102189.97
2023-01-20T23:23:45.998Z,102198.03
2023-01-20T23:26:18.967Z,102192.34
2023-01-20T23:28:46.471Z,102203.47
2023-01-20T23:31:15.516Z,102200.31
2023-01-20T23:33:44.383Z,102200.47
2023-01-20T23:36:13.282Z,102198.16
2023-01-20T23:38:39.976Z,102205.00
2023-01-20T23:41:07.425Z,102206.72
2023-01-20T23:43:34.064Z,102212.72
2023-01-20T23:46:04.813Z,102219.13
2023-01-20T23:48:32.304Z,102228.41
2023-01-20T23:51:02.074Z,102234.81
2023-01-20T23:53:29.592Z,102231.91
2023-01-20T23:56:01.800Z,102238.94
2023-01-20T23:58:28.829Z,102240.81
